Terminal Aerodrome Forecast
Issued by NWS

Home | Current Version | Previous Version | Text Only | Print | Product List | Glossary On
Versions: 1 2 3 4 5 6 7 8 9 10 11 12 13 14 15 16 17
000
FTUS44 KLZK 201100
TAFBPK
TAF
KBPK 201124Z 2012/2112 22003KT P6SM SCT250
     FM201500 21010KT P6SM SCT060 SCT250
     FM210100 16005KT P6SM SCT250=

USA.gov is the U.S. government's official web portal to all federal, state and local government web resources and services.